createdAt,value
2022-10-25T00:00:50.327Z,13.80
2022-10-25T00:03:21.161Z,13.78
2022-10-25T00:05:51.504Z,13.77
2022-10-25T00:08:22.557Z,13.76
2022-10-25T00:10:53.295Z,13.74
2022-10-25T00:13:23.643Z,13.74
2022-10-25T00:15:54.526Z,13.73
2022-10-25T00:18:26.099Z,13.73
2022-10-25T00:20:56.731Z,13.73
2022-10-25T00:23:27.792Z,13.73
2022-10-25T00:26:05.410Z,13.72
2022-10-25T00:28:36.282Z,13.72
2022-10-25T00:31:08.875Z,13.73
2022-10-25T00:33:40.843Z,13.72
2022-10-25T00:36:13.531Z,13.72
2022-10-25T00:38:45.861Z,13.71
2022-10-25T00:41:19.165Z,13.70
2022-10-25T00:43:51.832Z,13.69
2022-10-25T00:46:25.870Z,13.70
2022-10-25T00:49:01.614Z,13.70
2022-10-25T00:51:36.550Z,13.71
2022-10-25T00:54:08.933Z,13.71
2022-10-25T00:56:43.255Z,13.71
2022-10-25T00:59:17.788Z,13.71
2022-10-25T01:01:48.766Z,13.71
2022-10-25T01:04:21.559Z,13.71
2022-10-25T01:06:53.839Z,13.70
2022-10-25T01:09:26.994Z,13.70
2022-10-25T01:11:57.450Z,13.70
2022-10-25T01:14:29.110Z,13.69
2022-10-25T01:17:12.142Z,13.67
2022-10-25T01:20:19.245Z,13.66
2022-10-25T01:23:00.117Z,13.65
2022-10-25T01:25:56.678Z,13.64
2022-10-25T01:28:38.768Z,13.64
2022-10-25T01:31:18.477Z,13.65
2022-10-25T01:33:57.169Z,13.67
2022-10-25T01:36:38.812Z,13.68
2022-10-25T01:39:14.006Z,13.69
2022-10-25T01:41:54.501Z,13.71
2022-10-25T01:44:34.113Z,13.73
2022-10-25T01:47:07.745Z,13.75
2022-10-25T01:49:45.628Z,13.76
2022-10-25T01:52:16.656Z,13.78
2022-10-25T01:54:47.981Z,13.79
2022-10-25T01:57:54.734Z,13.79
2022-10-25T02:00:26.833Z,13.78
2022-10-25T02:03:16.061Z,13.77
2022-10-25T02:05:57.283Z,13.75
2022-10-25T02:08:36.364Z,13.74
2022-10-25T02:11:12.657Z,13.74
2022-10-25T02:13:59.225Z,13.72
2022-10-25T02:16:33.350Z,13.70
2022-10-25T02:19:06.772Z,13.68
2022-10-25T02:21:39.224Z,13.67
2022-10-25T02:24:16.532Z,13.64
2022-10-25T02:29:22.469Z,13.61
2022-10-25T02:31:53.796Z,13.55
2022-10-25T02:34:24.292Z,13.53
2022-10-25T02:36:55.407Z,13.48
2022-10-25T02:39:31.253Z,13.45
2022-10-25T02:42:03.123Z,13.41
2022-10-25T02:44:34.058Z,13.39
2022-10-25T02:47:04.989Z,13.35
2022-10-25T02:49:36.126Z,13.35
2022-10-25T02:52:06.678Z,13.33
2022-10-25T02:54:37.332Z,13.32
2022-10-25T02:57:07.813Z,13.32
2022-10-25T02:59:38.189Z,13.32
2022-10-25T03:02:09.217Z,13.32
2022-10-25T03:04:39.870Z,13.32
2022-10-25T03:07:10.647Z,13.30
2022-10-25T03:09:41.264Z,13.28
2022-10-25T03:12:11.892Z,13.27
2022-10-25T03:14:42.206Z,13.25
2022-10-25T03:17:12.793Z,13.23
2022-10-25T03:19:43.125Z,13.22
2022-10-25T03:22:13.460Z,13.22
2022-10-25T03:24:43.785Z,13.23
2022-10-25T03:27:14.121Z,13.23
2022-10-25T03:29:44.432Z,13.23
2022-10-25T03:32:14.731Z,13.24
2022-10-25T03:34:45.066Z,13.23
2022-10-25T03:37:15.659Z,13.22
2022-10-25T03:39:46.006Z,13.21
2022-10-25T03:42:16.665Z,13.22
2022-10-25T03:44:47.027Z,13.23
2022-10-25T03:47:17.368Z,13.24
2022-10-25T03:49:47.720Z,13.25
2022-10-25T03:52:18.012Z,13.26
2022-10-25T03:54:48.384Z,13.27
2022-10-25T03:57:19.005Z,13.28
2022-10-25T03:59:49.688Z,13.26
2022-10-25T04:02:20.103Z,13.26
2022-10-25T04:04:50.525Z,13.26
2022-10-25T04:07:21.622Z,13.26
2022-10-25T04:09:52.007Z,13.25
2022-10-25T04:12:22.583Z,13.25
2022-10-25T04:14:52.996Z,13.25
2022-10-25T04:17:23.880Z,13.24
2022-10-25T04:19:54.179Z,13.24
2022-10-25T04:22:24.587Z,13.24
2022-10-25T04:24:55.101Z,13.24
2022-10-25T04:27:25.520Z,13.25
2022-10-25T04:29:56.610Z,13.24
2022-10-25T04:32:27.338Z,13.24
2022-10-25T04:34:58.138Z,13.24
2022-10-25T04:37:28.554Z,13.23
2022-10-25T04:39:58.971Z,13.23
2022-10-25T04:42:29.509Z,13.22
2022-10-25T04:45:00.304Z,13.21
2022-10-25T04:47:33.355Z,13.20
2022-10-25T04:50:04.749Z,13.19
2022-10-25T04:52:35.099Z,13.18
2022-10-25T04:55:06.676Z,13.17
2022-10-25T04:57:37.142Z,13.18
2022-10-25T05:00:10.272Z,13.19
2022-10-25T05:02:41.060Z,13.20
2022-10-25T05:05:12.078Z,13.20
2022-10-25T05:07:42.808Z,13.19
2022-10-25T05:10:13.383Z,13.19
2022-10-25T05:12:44.539Z,13.19
2022-10-25T05:15:15.733Z,13.16
2022-10-25T05:17:46.222Z,13.18
2022-10-25T05:20:16.680Z,13.17
2022-10-25T05:22:47.144Z,13.16
2022-10-25T05:25:18.148Z,13.13
2022-10-25T05:27:48.914Z,13.13
2022-10-25T05:30:19.779Z,13.13
2022-10-25T05:32:50.877Z,13.15
2022-10-25T05:35:21.608Z,13.15
2022-10-25T05:37:52.282Z,13.15
2022-10-25T05:40:22.606Z,13.17
2022-10-25T05:42:55.361Z,13.17
2022-10-25T05:45:26.326Z,13.18
2022-10-25T05:47:56.941Z,13.18
2022-10-25T05:50:28.007Z,13.17
2022-10-25T05:52:59.240Z,13.19
2022-10-25T05:55:29.878Z,13.20
2022-10-25T05:58:00.824Z,13.20
2022-10-25T06:00:31.510Z,13.21
2022-10-25T06:03:04.369Z,13.22
2022-10-25T06:05:35.791Z,13.22
2022-10-25T06:08:07.326Z,13.23
2022-10-25T06:10:37.746Z,13.25
2022-10-25T06:13:08.973Z,13.27
2022-10-25T06:15:40.017Z,13.28
2022-10-25T06:18:10.378Z,13.30
2022-10-25T06:23:16.816Z,13.33
2022-10-25T06:25:47.591Z,13.34
2022-10-25T06:28:17.983Z,13.35
2022-10-25T06:30:48.316Z,13.36
2022-10-25T06:33:18.614Z,13.38
2022-10-25T06:35:48.962Z,13.39
2022-10-25T06:38:19.260Z,13.40
2022-10-25T06:40:49.920Z,13.40
2022-10-25T06:43:20.604Z,13.40
2022-10-25T06:45:51.254Z,13.41
2022-10-25T06:48:21.639Z,13.42
2022-10-25T06:51:03.789Z,13.43
2022-10-25T06:53:34.601Z,13.44
2022-10-25T06:56:09.190Z,13.45
2022-10-25T06:58:43.224Z,13.45
2022-10-25T07:01:15.867Z,13.47
2022-10-25T07:03:47.376Z,13.47
2022-10-25T07:06:19.753Z,13.47
2022-10-25T07:08:53.190Z,13.46
2022-10-25T07:11:24.841Z,13.45
2022-10-25T07:13:56.004Z,13.43
2022-10-25T07:16:27.447Z,13.41
2022-10-25T07:19:02.695Z,13.40
2022-10-25T07:21:34.223Z,13.38
2022-10-25T07:24:05.192Z,13.37
2022-10-25T07:26:36.424Z,13.36
2022-10-25T07:29:07.151Z,13.34
2022-10-25T07:31:39.524Z,13.33
2022-10-25T07:34:11.870Z,13.31
2022-10-25T07:36:42.734Z,13.31
2022-10-25T07:39:13.372Z,13.30
2022-10-25T07:41:43.996Z,13.32
2022-10-25T07:44:18.318Z,13.34
2022-10-25T07:46:52.229Z,13.36
2022-10-25T07:49:23.249Z,13.38
2022-10-25T07:51:53.905Z,13.40
2022-10-25T07:54:24.913Z,13.43
2022-10-25T07:56:55.978Z,13.46
2022-10-25T07:59:26.579Z,13.50
2022-10-25T08:01:57.303Z,13.53
2022-10-25T08:07:05.961Z,13.60
2022-10-25T08:09:38.587Z,13.64
2022-10-25T08:12:09.487Z,13.67
2022-10-25T08:14:42.306Z,13.73
2022-10-25T08:17:15.609Z,13.77
2022-10-25T08:19:50.279Z,13.82
2022-10-25T08:22:21.686Z,13.85
2022-10-25T08:24:52.397Z,13.90
2022-10-25T08:27:23.010Z,13.94
2022-10-25T08:29:53.659Z,13.99
2022-10-25T08:32:24.014Z,14.04
2022-10-25T08:34:54.897Z,14.11
2022-10-25T08:37:25.553Z,14.17
2022-10-25T08:39:56.609Z,14.22
2022-10-25T08:42:50.053Z,14.28
2022-10-25T08:45:27.546Z,14.34
2022-10-25T08:48:00.326Z,14.37
2022-10-25T08:50:39.114Z,14.39
2022-10-25T08:53:18.365Z,14.43
2022-10-25T08:56:11.696Z,14.47
2022-10-25T08:58:48.820Z,14.52
2022-10-25T09:01:25.195Z,14.56
2022-10-25T09:03:55.712Z,14.60
2022-10-25T09:06:35.703Z,14.63
2022-10-25T09:09:18.529Z,14.67
2022-10-25T09:12:02.125Z,14.73
2022-10-25T09:14:45.509Z,14.78
2022-10-25T09:17:20.997Z,14.84
2022-10-25T09:20:03.912Z,14.88
2022-10-25T09:22:45.505Z,14.91
2022-10-25T09:25:22.264Z,14.94
2022-10-25T09:28:01.134Z,14.97
2022-10-25T09:30:38.225Z,15.00
2022-10-25T09:33:13.753Z,15.02
2022-10-25T09:35:47.300Z,15.06
2022-10-25T09:38:23.011Z,15.08
2022-10-25T09:41:01.154Z,15.08
2022-10-25T09:43:38.609Z,15.09
2022-10-25T09:46:15.739Z,15.12
2022-10-25T09:48:51.669Z,15.15
2022-10-25T09:51:28.306Z,15.17
2022-10-25T09:54:01.414Z,15.17
2022-10-25T09:56:32.077Z,15.18
2022-10-25T09:59:04.423Z,15.21
2022-10-25T10:01:37.898Z,15.23
2022-10-25T10:04:24.614Z,15.24
2022-10-25T10:06:59.043Z,15.26
2022-10-25T10:09:32.437Z,15.30
2022-10-25T10:12:05.522Z,15.33
2022-10-25T10:14:42.213Z,15.36
2022-10-25T10:17:18.297Z,15.37
2022-10-25T10:20:09.891Z,15.37
2022-10-25T10:22:46.555Z,15.36
2022-10-25T10:25:22.611Z,15.34
2022-10-25T10:27:55.696Z,15.33
2022-10-25T10:30:29.809Z,15.32
2022-10-25T10:33:02.612Z,15.31
2022-10-25T10:35:35.822Z,15.31
2022-10-25T10:38:24.472Z,15.34
2022-10-25T10:41:14.145Z,15.38
2022-10-25T10:43:45.067Z,15.40
2022-10-25T10:46:18.053Z,15.43
2022-10-25T10:48:54.408Z,15.43
2022-10-25T10:51:44.153Z,15.44
2022-10-25T10:54:26.708Z,15.46
2022-10-25T10:56:59.684Z,15.46
2022-10-25T10:59:53.271Z,15.49
2022-10-25T11:02:37.488Z,15.51
2022-10-25T11:05:22.524Z,15.52
2022-10-25T11:07:59.102Z,15.53
2022-10-25T11:10:31.928Z,15.54
2022-10-25T11:13:17.836Z,15.56
2022-10-25T11:16:14.984Z,15.56
2022-10-25T11:18:57.110Z,15.59
2022-10-25T11:21:50.334Z,15.60
2022-10-25T11:24:31.573Z,15.62
2022-10-25T11:27:10.349Z,15.65
2022-10-25T11:29:54.613Z,15.70
2022-10-25T11:32:51.349Z,15.77
2022-10-25T11:35:39.088Z,15.85
2022-10-25T11:38:11.103Z,15.91
2022-10-25T11:40:47.828Z,15.94
2022-10-25T11:43:36.236Z,15.99
2022-10-25T11:46:12.857Z,16.03
2022-10-25T11:48:53.150Z,16.08
2022-10-25T11:51:33.149Z,16.15
2022-10-25T11:54:30.008Z,16.22
2022-10-25T11:57:09.336Z,16.31
2022-10-25T11:59:53.751Z,16.39
2022-10-25T12:02:47.095Z,16.48
2022-10-25T12:05:29.671Z,16.58
2022-10-25T12:08:10.022Z,16.68
2022-10-25T12:10:43.803Z,16.78
2022-10-25T12:13:20.655Z,16.88
2022-10-25T12:15:53.334Z,16.95
2022-10-25T12:18:27.488Z,16.99
2022-10-25T12:20:59.453Z,17.04
2022-10-25T12:23:33.020Z,17.10
2022-10-25T12:26:10.803Z,17.18
2022-10-25T12:28:47.633Z,17.24
2022-10-25T12:31:20.739Z,17.23
2022-10-25T12:33:56.754Z,17.19
2022-10-25T12:36:32.637Z,17.14
2022-10-25T12:39:07.914Z,17.08
2022-10-25T12:41:41.461Z,17.04
2022-10-25T12:44:30.642Z,17.00
2022-10-25T12:47:13.262Z,16.98
2022-10-25T12:53:26.708Z,16.95
2022-10-25T12:56:07.682Z,16.96
2022-10-25T12:58:54.513Z,16.94
2022-10-25T13:01:43.008Z,16.91
2022-10-25T13:04:36.108Z,16.85
2022-10-25T13:07:08.608Z,16.75
2022-10-25T13:09:40.738Z,16.67
2022-10-25T13:12:22.894Z,16.59
2022-10-25T13:14:56.201Z,16.47
2022-10-25T13:18:00.802Z,16.35
2022-10-25T13:20:52.519Z,16.26
2022-10-25T13:23:58.459Z,16.16
2022-10-25T13:26:48.430Z,16.06
2022-10-25T13:29:58.726Z,15.99
2022-10-25T13:32:30.669Z,15.91
2022-10-25T13:35:03.786Z,15.87
2022-10-25T13:37:45.737Z,15.83
2022-10-25T13:40:30.907Z,15.79
2022-10-25T13:43:07.506Z,15.76
2022-10-25T13:45:45.814Z,15.74
2022-10-25T13:48:28.556Z,15.71
2022-10-25T13:51:01.085Z,15.70
2022-10-25T13:53:39.332Z,15.71
2022-10-25T13:56:15.966Z,15.74
2022-10-25T13:58:51.531Z,15.79
2022-10-25T14:01:56.693Z,15.84
2022-10-25T14:04:38.501Z,15.88
2022-10-25T14:07:46.448Z,15.89
2022-10-25T14:10:22.307Z,15.87
2022-10-25T14:12:56.316Z,15.84
2022-10-25T14:15:37.304Z,15.80
2022-10-25T14:18:15.274Z,15.75
2022-10-25T14:20:50.480Z,15.71
2022-10-25T14:23:25.745Z,15.67
2022-10-25T14:25:59.400Z,15.63
2022-10-25T14:28:32.003Z,15.60
2022-10-25T14:31:04.240Z,15.56
2022-10-25T14:33:39.429Z,15.52
2022-10-25T14:36:23.716Z,15.48
2022-10-25T14:38:56.412Z,15.44
2022-10-25T14:41:29.086Z,15.41
2022-10-25T14:44:00.137Z,15.39
2022-10-25T14:46:31.683Z,15.37
2022-10-25T14:49:03.352Z,15.36
2022-10-25T14:51:36.426Z,15.35
2022-10-25T14:54:20.054Z,15.34
2022-10-25T14:56:54.280Z,15.33
2022-10-25T14:59:28.239Z,15.31
2022-10-25T15:02:01.310Z,15.30
2022-10-25T15:04:35.085Z,15.28
2022-10-25T15:07:06.480Z,15.25
2022-10-25T15:09:42.579Z,15.20
2022-10-25T15:12:24.715Z,15.15
2022-10-25T15:14:56.063Z,15.12
2022-10-25T15:17:30.981Z,15.08
2022-10-25T15:20:08.406Z,15.05
2022-10-25T15:22:47.487Z,15.01
2022-10-25T15:25:29.713Z,14.99
2022-10-25T15:28:12.263Z,14.95
2022-10-25T15:30:58.608Z,14.91
2022-10-25T15:33:31.605Z,14.87
2022-10-25T15:36:04.325Z,14.84
2022-10-25T15:39:01.819Z,14.80
2022-10-25T15:41:28.306Z,14.77
2022-10-25T15:43:58.757Z,14.74
2022-10-25T15:46:33.338Z,14.71
2022-10-25T15:49:08.378Z,14.67
2022-10-25T15:51:42.074Z,14.63
2022-10-25T15:54:17.634Z,14.60
2022-10-25T15:56:48.556Z,14.56
2022-10-25T15:59:19.207Z,14.52
2022-10-25T16:01:53.302Z,14.48
2022-10-25T16:04:24.881Z,14.44
2022-10-25T16:06:55.374Z,14.38
2022-10-25T16:09:25.752Z,14.34
2022-10-25T16:11:56.530Z,14.29
2022-10-25T16:14:28.719Z,14.24
2022-10-25T16:17:00.005Z,14.19
2022-10-25T16:19:31.601Z,14.14
2022-10-25T16:22:02.949Z,14.09
2022-10-25T16:24:33.703Z,14.04
2022-10-25T16:27:04.150Z,13.98
2022-10-25T16:29:34.614Z,13.95
2022-10-25T16:32:05.622Z,13.90
2022-10-25T16:34:36.144Z,13.85
2022-10-25T16:37:11.378Z,13.81
2022-10-25T16:39:42.231Z,13.77
2022-10-25T16:42:27.465Z,13.71
2022-10-25T16:44:58.183Z,13.67
2022-10-25T16:47:29.575Z,13.64
2022-10-25T16:50:00.256Z,13.61
2022-10-25T16:52:30.923Z,13.57
2022-10-25T16:55:01.244Z,13.53
2022-10-25T16:57:31.564Z,13.48
2022-10-25T17:00:02.015Z,13.44
2022-10-25T17:02:32.627Z,13.40
2022-10-25T17:05:03.106Z,13.35
2022-10-25T17:07:34.498Z,13.36
2022-10-25T17:10:05.387Z,13.34
2022-10-25T17:12:42.650Z,13.32
2022-10-25T17:15:14.847Z,13.28
2022-10-25T17:17:46.660Z,13.25
2022-10-25T17:20:18.928Z,13.21
2022-10-25T17:22:50.424Z,13.17
2022-10-25T17:25:21.351Z,13.11
2022-10-25T17:27:54.623Z,13.06
2022-10-25T17:30:26.361Z,13.01
2022-10-25T17:32:57.060Z,12.96
2022-10-25T17:35:29.950Z,12.92
2022-10-25T17:38:00.335Z,12.86
2022-10-25T17:40:30.682Z,12.80
2022-10-25T17:43:01.775Z,12.76
2022-10-25T17:45:33.202Z,12.73
2022-10-25T17:48:04.171Z,12.69
2022-10-25T17:50:36.136Z,12.67
2022-10-25T17:53:06.790Z,12.63
2022-10-25T17:55:41.100Z,12.64
2022-10-25T17:58:12.423Z,12.62
2022-10-25T18:00:43.524Z,12.61
2022-10-25T18:03:15.588Z,12.60
2022-10-25T18:05:48.437Z,12.58
2022-10-25T18:08:19.052Z,12.56
2022-10-25T18:10:49.410Z,12.53
2022-10-25T18:13:23.877Z,12.50
2022-10-25T18:15:54.891Z,12.50
2022-10-25T18:18:25.395Z,12.48
2022-10-25T18:20:56.078Z,12.45
2022-10-25T18:23:26.458Z,12.44
2022-10-25T18:28:33.135Z,12.41
2022-10-25T18:31:04.885Z,12.37
2022-10-25T18:33:37.336Z,12.33
2022-10-25T18:36:11.197Z,12.29
2022-10-25T18:38:42.216Z,12.25
2022-10-25T18:41:14.659Z,12.22
2022-10-25T18:43:45.063Z,12.19
2022-10-25T18:46:16.550Z,12.17
2022-10-25T18:48:51.485Z,12.14
2022-10-25T18:51:23.663Z,12.09
2022-10-25T18:53:56.845Z,12.05
2022-10-25T18:56:27.916Z,12.00
2022-10-25T18:58:59.953Z,11.97
2022-10-25T19:01:33.245Z,11.94
2022-10-25T19:04:05.187Z,11.89
2022-10-25T19:06:36.562Z,11.87
2022-10-25T19:09:07.836Z,11.82
2022-10-25T19:11:38.837Z,11.78
2022-10-25T19:14:09.797Z,11.75
2022-10-25T19:16:41.455Z,11.72
2022-10-25T19:19:12.923Z,11.68
2022-10-25T19:21:44.054Z,11.66
2022-10-25T19:24:16.692Z,11.64
2022-10-25T19:26:47.469Z,11.61
2022-10-25T19:29:18.182Z,11.60
2022-10-25T19:31:49.889Z,11.58
2022-10-25T19:34:20.591Z,11.56
2022-10-25T19:36:51.974Z,11.53
2022-10-25T19:39:22.580Z,11.49
2022-10-25T19:41:53.511Z,11.46
2022-10-25T19:44:24.396Z,11.42
2022-10-25T19:46:54.841Z,11.38
2022-10-25T19:49:25.592Z,11.35
2022-10-25T19:51:56.329Z,11.32
2022-10-25T19:54:27.055Z,11.30
2022-10-25T19:57:01.289Z,11.28
2022-10-25T19:59:31.724Z,11.25
2022-10-25T20:02:02.932Z,11.23
2022-10-25T20:04:37.670Z,11.21
2022-10-25T20:07:46.411Z,11.21
2022-10-25T20:10:18.101Z,11.19
2022-10-25T20:12:51.437Z,11.17
2022-10-25T20:15:22.283Z,11.15
2022-10-25T20:17:54.916Z,11.13
2022-10-25T20:20:26.228Z,11.10
2022-10-25T20:22:57.489Z,11.08
2022-10-25T20:25:29.909Z,11.07
2022-10-25T20:28:02.602Z,11.07
2022-10-25T20:30:35.314Z,11.07
2022-10-25T20:33:06.182Z,11.06
2022-10-25T20:35:44.287Z,11.04
2022-10-25T20:38:17.184Z,11.02
2022-10-25T20:40:48.224Z,11.01
2022-10-25T20:43:19.745Z,11.00
2022-10-25T20:45:54.630Z,10.99
2022-10-25T20:48:35.333Z,10.97
2022-10-25T20:51:09.817Z,10.94
2022-10-25T20:53:57.365Z,10.96
2022-10-25T20:56:28.491Z,10.97
2022-10-25T20:59:00.523Z,10.98
2022-10-25T21:01:32.244Z,10.98
2022-10-25T21:04:04.022Z,10.98
2022-10-25T21:06:35.623Z,10.98
2022-10-25T21:09:07.502Z,10.98
2022-10-25T21:11:38.501Z,10.97
2022-10-25T21:14:11.603Z,10.96
2022-10-25T21:16:42.368Z,10.95
2022-10-25T21:19:25.049Z,10.95
2022-10-25T21:21:55.957Z,10.93
2022-10-25T21:24:27.073Z,10.91
2022-10-25T21:27:01.022Z,10.90
2022-10-25T21:29:32.313Z,10.88
2022-10-25T21:32:06.047Z,10.85
2022-10-25T21:34:37.635Z,10.84
2022-10-25T21:37:09.119Z,10.82
2022-10-25T21:39:42.585Z,10.80
2022-10-25T21:42:13.477Z,10.79
2022-10-25T21:44:44.766Z,10.79
2022-10-25T21:47:15.493Z,10.77
2022-10-25T21:49:46.110Z,10.76
2022-10-25T21:52:16.482Z,10.75
2022-10-25T21:54:47.164Z,10.74
2022-10-25T21:57:17.978Z,10.73
2022-10-25T21:59:48.391Z,10.71
2022-10-25T22:02:19.419Z,10.71
2022-10-25T22:04:50.205Z,10.69
2022-10-25T22:07:21.305Z,10.66
2022-10-25T22:09:51.676Z,10.65
2022-10-25T22:12:22.031Z,10.63
2022-10-25T22:14:53.150Z,10.62
2022-10-25T22:17:24.170Z,10.61
2022-10-25T22:19:54.817Z,10.59
2022-10-25T22:22:25.188Z,10.58
2022-10-25T22:24:55.599Z,10.55
2022-10-25T22:27:26.829Z,10.53
2022-10-25T22:29:57.873Z,10.51
2022-10-25T22:32:28.540Z,10.47
2022-10-25T22:34:59.226Z,10.45
2022-10-25T22:37:29.553Z,10.42
2022-10-25T22:39:59.921Z,10.41
2022-10-25T22:42:30.684Z,10.39
2022-10-25T22:45:01.085Z,10.38
2022-10-25T22:47:32.217Z,10.37
2022-10-25T22:50:02.641Z,10.35
2022-10-25T22:52:33.373Z,10.31
2022-10-25T22:55:04.440Z,10.31
2022-10-25T22:57:35.218Z,10.31
2022-10-25T23:00:06.552Z,10.29
2022-10-25T23:02:36.938Z,10.28
2022-10-25T23:05:08.787Z,10.27
2022-10-25T23:07:39.257Z,10.24
2022-10-25T23:10:11.079Z,10.24
2022-10-25T23:12:41.854Z,10.21
2022-10-25T23:15:13.083Z,10.19
2022-10-25T23:17:43.486Z,10.16
2022-10-25T23:20:14.191Z,10.14
2022-10-25T23:22:44.871Z,10.11
2022-10-25T23:25:15.584Z,10.10
2022-10-25T23:27:46.674Z,10.11
2022-10-25T23:30:17.634Z,10.10
2022-10-25T23:32:48.555Z,10.09
2022-10-25T23:35:19.051Z,10.11
2022-10-25T23:37:50.062Z,10.08
2022-10-25T23:40:20.657Z,10.07
2022-10-25T23:42:51.019Z,10.04
2022-10-25T23:45:21.949Z,10.02
2022-10-25T23:47:52.318Z,10.00
2022-10-25T23:50:22.985Z,9.97
2022-10-25T23:52:53.767Z,9.94
2022-10-25T23:55:24.181Z,9.92
2022-10-25T23:58:00.143Z,9.89
